Time;durP1;ratioP1;P1;durP2;ratioP2;P2;SDS_P1;SDS_P2;PMS_P1;PMS_P2;Temp;Humidity;BMP_temperature;BMP_pressure;BME280_temperature;BME280_humidity;BME280_pressure;Samples;Min_cycle;Max_cycle;Signal;HPM_P1;HPM_P2
2023/04/21 00:00:55;;;;;;;22.27;13.55;;;9.10;99.90;;;;;;5077103;28;20444;-82
2023/04/21 00:03:22;;;;;;;;;;;9.10;99.90;;;;;;5059851;28;20051;-82
2023/04/21 00:05:49;;;;;;;22.88;13.73;;;9.20;99.90;;;;;;5076967;28;19971;-82
2023/04/21 00:08:15;;;;;;;22.52;14.38;;;9.20;99.90;;;;;;5059457;28;20088;-82
2023/04/21 00:10:41;;;;;;;23.85;13.70;;;9.20;99.90;;;;;;5075917;28;20079;-83
2023/04/21 00:13:07;;;;;;;25.45;12.68;;;9.20;99.90;;;;;;5076892;28;20079;-83
2023/04/21 00:15:33;;;;;;;21.63;12.68;;;9.20;99.90;;;;;;5075870;28;20049;-82
2023/04/21 00:17:58;;;;;;;25.60;13.02;;;9.40;99.90;;;;;;5076756;28;20040;-83
2023/04/21 00:20:27;;;;;;;22.17;12.98;;;9.10;99.90;;;;;;5076507;28;20036;-83
2023/04/21 00:22:54;;;;;;;26.95;13.68;;;9.10;99.90;;;;;;5076628;28;20094;-83
2023/04/21 00:25:20;;;;;;;25.35;13.00;;;9.10;99.90;;;;;;5075483;28;20123;-83
2023/04/21 00:27:46;;;;;;;22.13;12.90;;;9.80;99.90;;;;;;5076434;28;20472;-83
2023/04/21 00:30:12;;;;;;;28.63;13.35;;;9.10;99.90;;;;;;5075226;28;20044;-81
2023/04/21 00:32:38;;;;;;;22.67;12.25;;;9.00;99.90;;;;;;5058781;28;20044;-82
2023/04/21 00:35:04;;;;;;;19.23;11.27;;;9.00;99.90;;;;;;5076482;28;20040;-83
2023/04/21 00:37:30;;;;;;;20.63;11.50;;;9.00;99.90;;;;;;5076443;28;20503;-82
2023/04/21 00:39:55;;;;;;;23.90;12.75;;;8.90;99.90;;;;;;5076408;28;20045;-82
2023/04/21 00:42:21;;;;;;;23.23;12.40;;;8.90;99.90;;;;;;5075012;28;20048;-82
2023/04/21 00:44:47;;;;;;;28.90;12.63;;;8.80;99.90;;;;;;5075525;28;20050;-83
2023/04/21 00:47:12;;;;;;;20.98;11.70;;;8.90;99.90;;;;;;5076094;28;20036;-82
2023/04/21 00:49:38;;;;;;;18.75;11.63;;;8.80;99.90;;;;;;5075926;28;20052;-83
2023/04/21 00:52:08;;;;;;;20.45;11.50;;;8.80;99.90;;;;;;5076084;28;20472;-82
2023/04/21 00:54:36;;;;;;;22.38;11.93;;;8.80;99.90;;;;;;5076091;28;20063;-83
2023/04/21 00:57:02;;;;;;;21.30;12.30;;;8.80;99.90;;;;;;5058213;28;20079;-83
2023/04/21 00:59:29;;;;;;;21.65;12.23;;;8.80;99.90;;;;;;5074967;28;20527;-82
2023/04/21 01:01:54;;;;;;;22.35;11.15;;;8.80;99.90;;;;;;5074769;28;20048;-82
2023/04/21 01:04:20;;;;;;;17.50;10.60;;;8.80;99.90;;;;;;5075986;28;20051;-83
2023/04/21 01:06:46;;;;;;;20.50;12.45;;;8.80;99.90;;;;;;5074437;28;20090;-83
2023/04/21 01:09:12;;;;;;;26.17;11.57;;;8.80;99.90;;;;;;5075825;28;20047;-82
2023/04/21 01:11:38;;;;;;;16.45;10.07;;;8.80;99.90;;;;;;5075996;28;20119;-83
2023/04/21 01:14:04;;;;;;;20.73;11.45;;;8.80;99.90;;;;;;5075080;28;20132;-82
2023/04/21 01:16:33;;;;;;;19.58;11.27;;;8.80;99.90;;;;;;5075699;28;20068;-82
2023/04/21 01:19:00;;;;;;;20.83;12.20;;;8.90;99.90;;;;;;5075644;28;20365;-83
2023/04/21 01:21:27;;;;;;;19.95;11.20;;;8.90;99.90;;;;;;5075651;28;20041;-82
2023/04/21 01:23:53;;;;;;;17.45;10.43;;;8.90;99.90;;;;;;5074586;28;20083;-83
2023/04/21 01:26:20;;;;;;;16.27;10.18;;;9.00;99.90;;;;;;5075505;28;20045;-82
2023/04/21 01:28:47;;;;;;;;;;;8.90;99.90;;;;;;5075133;28;20045;-82
2023/04/21 01:31:16;;;;;;;16.42;11.23;;;9.20;99.90;;;;;;5075420;28;19920;-82
2023/04/21 01:33:42;;;;;;;18.60;11.55;;;8.90;99.90;;;;;;5074188;28;20072;-82
2023/04/21 01:36:09;;;;;;;18.60;10.30;;;8.90;99.90;;;;;;5041023;28;20040;-82
2023/04/21 01:38:39;;;;;;;17.05;10.18;;;8.90;99.90;;;;;;5075210;28;20366;-83
2023/04/21 01:41:05;;;;;;;19.15;10.95;;;9.00;99.90;;;;;;5057747;28;20044;-83
2023/04/21 01:43:30;;;;;;;16.63;9.95;;;8.90;99.90;;;;;;5075079;28;20037;-83
2023/04/21 01:45:56;;;;;;;18.80;10.20;;;8.90;99.90;;;;;;5057352;28;20055;-83
2023/04/21 01:48:22;;;;;;;19.20;10.43;;;9.50;99.90;;;;;;5074414;28;20040;-83
2023/04/21 01:50:47;;;;;;;20.45;10.60;;;8.90;99.90;;;;;;5073647;28;20082;-82
2023/04/21 01:53:13;;;;;;;20.40;10.10;;;8.90;99.90;;;;;;5056989;28;20553;-82
2023/04/21 01:55:38;;;;;;;20.65;10.40;;;8.90;99.90;;;;;;5074287;28;20067;-83
2023/04/21 01:58:04;;;;;;;16.02;9.85;;;8.90;99.90;;;;;;5074877;28;20052;-82
2023/04/21 02:00:29;;;;;;;19.25;9.52;;;8.90;99.90;;;;;;5074732;28;20079;-82
2023/04/21 02:02:55;;;;;;;15.05;9.30;;;8.90;99.90;;;;;;5073838;28;20366;-82
2023/04/21 02:05:21;;;;;;;16.73;9.55;;;8.90;99.90;;;;;;5073483;28;20098;-82
2023/04/21 02:07:46;;;;;;;14.85;9.50;;;8.90;99.90;;;;;;5074639;28;20103;-83
2023/04/21 02:10:12;;;;;;;17.88;10.05;;;8.90;99.90;;;;;;5073734;28;20089;-84
2023/04/21 02:12:37;;;;;;;17.15;9.95;;;8.90;99.90;;;;;;5073263;28;20485;-83
2023/04/21 02:15:04;;;;;;;14.70;8.95;;;9.10;99.90;;;;;;5073289;28;20041;-83
2023/04/21 02:17:30;;;;;;;17.55;9.68;;;8.90;99.90;;;;;;5075214;28;20458;-83
2023/04/21 02:19:56;;;;;;;16.95;9.68;;;8.90;99.90;;;;;;5074629;28;20051;-83
2023/04/21 02:22:22;;;;;;;13.27;9.35;;;8.90;99.90;;;;;;5073602;28;20044;-83
2023/04/21 02:24:48;;;;;;;16.33;9.20;;;8.90;99.90;;;;;;5073211;28;20373;-82
2023/04/21 02:27:14;;;;;;;16.77;8.93;;;8.90;99.90;;;;;;5073191;28;20041;-83
2023/04/21 02:29:40;;;;;;;17.95;9.65;;;8.90;99.90;;;;;;5073089;28;20045;-83
2023/04/21 02:32:06;;;;;;;16.15;10.15;;;8.80;99.90;;;;;;5074264;28;20052;-82
2023/04/21 02:34:32;;;;;;;17.83;8.98;;;9.10;99.90;;;;;;5074297;28;20094;-83
2023/04/21 02:36:58;;;;;;;19.35;9.50;;;8.80;99.90;;;;;;5074520;28;20040;-83
2023/04/21 02:39:24;;;;;;;14.45;9.77;;;8.80;99.90;;;;;;5074456;28;20131;-83
2023/04/21 02:41:50;;;;;;;16.98;8.98;;;8.80;99.90;;;;;;5074324;28;20131;-83
2023/04/21 02:44:15;;;;;;;17.73;9.52;;;8.80;99.90;;;;;;5074151;28;20040;-83
2023/04/21 02:46:41;;;;;;;15.00;8.95;;;8.80;99.90;;;;;;5073142;28;20459;-82
2023/04/21 02:49:07;;;;;;;13.82;9.85;;;8.80;99.90;;;;;;5072977;28;20171;-83
2023/04/21 02:51:33;;;;;;;19.50;9.57;;;8.80;99.90;;;;;;5075347;28;20511;-83
2023/04/21 02:53:59;;;;;;;20.33;9.82;;;8.80;99.90;;;;;;5074721;28;20040;-83
2023/04/21 02:56:25;;;;;;;16.55;9.57;;;9.20;99.90;;;;;;5075646;28;20050;-83
2023/04/21 02:58:50;;;;;;;21.58;10.43;;;9.20;99.90;;;;;;5056839;28;20139;-83
2023/04/21 03:01:16;;;;;;;19.23;8.88;;;8.70;99.90;;;;;;5074586;28;20048;-83
2023/04/21 03:03:41;;;;;;;17.58;9.27;;;8.80;99.90;;;;;;5073875;28;20491;-83
2023/04/21 03:06:07;;;;;;;15.38;8.50;;;8.70;99.90;;;;;;5072205;28;20048;-83
2023/04/21 03:08:33;;;;;;;16.02;9.35;;;8.70;99.90;;;;;;5072121;28;20485;-83
2023/04/21 03:10:59;;;;;;;18.00;9.90;;;8.70;99.90;;;;;;5072585;28;20052;-83
2023/04/21 03:13:25;;;;;;;14.77;9.25;;;8.70;99.90;;;;;;5072650;28;20033;-82
2023/04/21 03:15:51;;;;;;;22.65;9.98;;;8.70;99.90;;;;;;5072284;28;20040;-83
2023/04/21 03:18:16;;;;;;;21.25;9.77;;;9.30;99.90;;;;;;5073328;28;20048;-82
2023/04/21 03:20:42;;;;;;;17.63;9.32;;;8.60;99.90;;;;;;5072453;28;20098;-82
2023/04/21 03:23:08;;;;;;;21.98;9.48;;;9.40;99.90;;;;;;5073587;28;20048;-83
2023/04/21 03:25:34;;;;;;;16.07;9.33;;;8.70;99.90;;;;;;5073557;28;20040;-82
2023/04/21 03:28:00;;;;;;;19.10;10.00;;;8.70;99.90;;;;;;5073676;28;20275;-83
2023/04/21 03:30:26;;;;;;;14.43;9.20;;;8.60;99.90;;;;;;5072457;28;20045;-83
2023/04/21 03:32:52;;;;;;;15.50;9.07;;;8.60;99.90;;;;;;5073428;28;20051;-82
2023/04/21 03:35:17;;;;;;;15.82;9.55;;;8.60;99.90;;;;;;5072678;28;20380;-83
2023/04/21 03:37:43;;;;;;;17.25;8.55;;;8.60;99.90;;;;;;5073439;28;20076;-82
2023/04/21 03:40:10;;;;;;;16.25;8.75;;;8.70;99.90;;;;;;5073394;28;20048;-82
2023/04/21 03:42:36;;;;;;;;;;;8.60;99.90;;;;;;5072787;28;20044;-82
2023/04/21 03:45:06;;;;;;;17.30;9.30;;;8.70;99.90;;;;;;5073316;28;20338;-82
2023/04/21 03:47:32;;;;;;;15.95;9.27;;;8.60;99.90;;;;;;5073444;28;20048;-82
2023/04/21 03:49:58;;;;;;;18.77;9.30;;;8.70;99.90;;;;;;5073645;28;20435;-82
2023/04/21 03:52:23;;;;;;;16.17;9.38;;;8.70;99.90;;;;;;5072379;28;20044;-82
2023/04/21 03:54:49;;;;;;;15.85;9.23;;;8.70;99.90;;;;;;5073259;28;20044;-82
2023/04/21 03:57:15;;;;;;;19.88;9.80;;;8.70;99.90;;;;;;5073454;28;20078;-83
2023/04/21 03:59:40;;;;;;;13.32;9.00;;;9.30;99.90;;;;;;5073213;28;20039;-82
2023/04/21 04:02:06;;;;;;;13.98;9.32;;;8.70;99.90;;;;;;5072095;28;20123;-82
2023/04/21 04:04:32;;;;;;;15.70;8.20;;;9.20;99.90;;;;;;5072252;28;20486;-82
2023/04/21 04:06:57;;;;;;;19.35;9.75;;;8.70;99.90;;;;;;5073214;28;20091;-82
2023/04/21 04:09:23;;;;;;;19.50;9.90;;;8.60;99.90;;;;;;5071820;28;20044;-83
2023/04/21 04:11:49;;;;;;;16.55;9.18;;;8.60;99.90;;;;;;5071985;28;20048;-82
2023/04/21 04:14:15;;;;;;;19.35;9.68;;;8.60;99.90;;;;;;5072933;28;20048;-82
2023/04/21 04:16:41;;;;;;;15.05;8.88;;;8.50;99.90;;;;;;5073033;28;20135;-82
2023/04/21 04:19:07;;;;;;;15.45;9.13;;;8.50;99.90;;;;;;5075749;28;20127;-82
2023/04/21 04:21:33;;;;;;;15.85;9.02;;;8.40;99.90;;;;;;5076688;28;20133;-82
2023/04/21 04:23:59;;;;;;;15.07;8.98;;;8.40;99.90;;;;;;5075643;28;20559;-83
2023/04/21 04:26:25;;;;;;;14.40;8.40;;;9.10;99.90;;;;;;5075713;28;20040;-83
2023/04/21 04:28:55;;;;;;;22.02;9.98;;;8.70;99.90;;;;;;5058599;28;20480;-82
2023/04/21 04:31:24;;;;;;;13.57;9.02;;;8.60;99.90;;;;;;5059179;28;20090;-82
2023/04/21 04:33:50;;;;;;;17.85;9.55;;;8.90;99.90;;;;;;5076556;28;20507;-83
2023/04/21 04:36:15;;;;;;;17.48;8.63;;;8.30;99.90;;;;;;5075514;28;20040;-82
2023/04/21 04:38:41;;;;;;;18.27;8.73;;;8.20;99.90;;;;;;5075589;28;20039;-83
2023/04/21 04:41:07;;;;;;;17.88;9.02;;;8.30;99.90;;;;;;5075393;28;20529;-84
2023/04/21 04:43:35;;;;;;;15.27;9.00;;;8.20;99.90;;;;;;5075288;28;20547;-80
2023/04/21 04:46:05;;;;;;;18.90;9.25;;;8.30;99.90;;;;;;5076375;28;20051;-80
2023/04/21 04:48:31;;;;;;;15.75;8.98;;;8.70;99.90;;;;;;5076305;28;20040;-85
2023/04/21 04:50:56;;;;;;;15.25;9.57;;;8.90;99.90;;;;;;5075278;28;20056;-80
2023/04/21 04:53:22;;;;;;;17.90;9.80;;;8.30;99.90;;;;;;5076080;28;20155;-83
2023/04/21 04:55:47;;;;;;;15.93;9.57;;;8.30;99.90;;;;;;5076261;28;20052;-84
2023/04/21 04:58:13;;;;;;;15.73;9.02;;;8.60;99.90;;;;;;5074769;28;20055;-80
2023/04/21 05:00:39;;;;;;;16.08;9.35;;;8.30;99.90;;;;;;5076210;28;20044;-84
2023/04/21 05:03:05;;;;;;;18.00;9.60;;;8.50;99.90;;;;;;5074377;28;20036;-78
2023/04/21 05:05:31;;;;;;;15.77;8.48;;;8.30;99.90;;;;;;5076150;28;20044;-82
2023/04/21 05:07:57;;;;;;;17.25;9.05;;;8.40;99.90;;;;;;5074809;28;20567;-84
2023/04/21 05:10:23;;;;;;;13.63;9.57;;;8.40;99.90;;;;;;5074891;28;20059;-81
2023/04/21 05:12:49;;;;;;;15.20;8.07;;;9.20;99.90;;;;;;5057881;28;20396;-81
2023/04/21 05:15:15;;;;;;;14.77;8.63;;;8.40;99.90;;;;;;5058407;28;20143;-81
2023/04/21 05:17:41;;;;;;;14.95;9.10;;;8.40;99.90;;;;;;5075267;28;20435;-81
2023/04/21 05:20:07;;;;;;;17.75;8.68;;;8.40;99.90;;;;;;5075774;28;20048;-82
2023/04/21 05:22:39;;;;;;;17.05;8.73;;;8.50;99.90;;;;;;5075687;28;20036;-81
2023/04/21 05:25:05;;;;;;;17.13;9.82;;;8.50;99.90;;;;;;5074866;28;20131;-80
2023/04/21 05:27:32;;;;;;;15.30;8.48;;;8.60;99.90;;;;;;5075447;28;20106;-88
2023/04/21 05:29:58;;;;;;;17.60;8.25;;;8.60;99.90;;;;;;5073664;28;20128;-81
2023/04/21 05:32:24;;;;;;;17.50;8.35;;;8.60;99.90;;;;;;5075439;28;20124;-87
2023/04/21 05:34:49;;;;;;;14.90;8.25;;;8.70;99.90;;;;;;5057670;28;20049;-81
2023/04/21 05:37:15;;;;;;;12.65;7.55;;;8.80;99.90;;;;;;5075383;28;20468;-82
2023/04/21 05:39:41;;;;;;;14.95;7.53;;;8.80;99.90;;;;;;5075412;28;20045;-84
2023/04/21 05:42:09;;;;;;;14.70;8.15;;;8.80;99.90;;;;;;5074357;28;20436;-81
2023/04/21 05:44:35;;;;;;;14.15;7.63;;;8.90;99.90;;;;;;5075015;28;20044;-85
2023/04/21 05:47:00;;;;;;;16.25;8.05;;;8.90;99.90;;;;;;5074222;28;20491;-83
2023/04/21 05:49:26;;;;;;;13.10;8.05;;;9.00;99.90;;;;;;5075076;28;20056;-85
2023/04/21 05:51:51;;;;;;;11.30;7.65;;;9.00;99.90;;;;;;5057370;28;20080;-85
2023/04/21 05:54:17;;;;;;;15.52;7.18;;;9.10;99.90;;;;;;5073872;28;20040;-84
2023/04/21 05:56:43;;;;;;;13.30;7.45;;;9.10;99.90;;;;;;5073756;28;20178;-83
2023/04/21 05:59:08;;;;;;;12.73;8.30;;;9.20;99.90;;;;;;5074480;28;20094;-83
2023/04/21 06:01:34;;;;;;;13.52;7.20;;;9.30;99.90;;;;;;5057615;28;20044;-84
2023/04/21 06:04:00;;;;;;;14.40;7.17;;;10.00;99.90;;;;;;5073874;28;20056;-84
2023/04/21 06:06:26;;;;;;;17.63;7.60;;;9.40;99.90;;;;;;5057654;28;20044;-84
2023/04/21 06:08:52;;;;;;;19.15;7.45;;;9.50;99.90;;;;;;5076282;28;20118;-84
2023/04/21 06:11:18;;;;;;;15.05;7.47;;;10.00;99.90;;;;;;5080484;28;20484;-83
2023/04/21 06:13:43;;;;;;;11.50;7.03;;;9.70;99.90;;;;;;5079499;28;20040;-83
2023/04/21 06:16:09;;;;;;;12.82;7.43;;;9.70;99.90;;;;;;5079186;28;20052;-83
2023/04/21 06:18:35;;;;;;;14.40;7.20;;;9.70;99.90;;;;;;5074551;28;20492;-82
2023/04/21 06:21:00;;;;;;;12.07;7.82;;;10.00;99.90;;;;;;5073867;28;20133;-82
2023/04/21 06:23:26;;;;;;;14.73;7.65;;;10.00;99.90;;;;;;5074109;28;20040;-81
2023/04/21 06:26:00;;;;;;;15.85;6.93;;;10.00;99.90;;;;;;5040460;28;20048;-79
2023/04/21 06:28:25;;;;;;;13.68;7.65;;;10.20;99.90;;;;;;5074605;28;20052;-84
2023/04/21 06:30:51;;;;;;;20.55;7.47;;;10.30;99.90;;;;;;5073459;28;20048;-85
2023/04/21 06:33:17;;;;;;;14.68;7.55;;;10.30;99.90;;;;;;5074174;28;20051;-86
2023/04/21 06:35:42;;;;;;;15.07;7.22;;;10.00;99.90;;;;;;5073798;28;20055;-85
2023/04/21 06:38:08;;;;;;;12.43;6.85;;;10.40;99.90;;;;;;5073212;28;20468;-84
2023/04/21 06:40:33;;;;;;;13.60;6.82;;;10.40;99.90;;;;;;5072777;28;20131;-86
2023/04/21 06:42:59;;;;;;;12.52;7.10;;;10.50;99.90;;;;;;5074425;28;20048;-85
2023/04/21 06:45:25;;;;;;;13.45;7.18;;;11.10;99.90;;;;;;5074928;28;20046;-84
2023/04/21 06:47:50;;;;;;;16.15;6.65;;;10.60;99.90;;;;;;5056411;28;20040;-84
2023/04/21 06:50:16;;;;;;;12.95;7.05;;;10.90;99.90;;;;;;5073808;28;20127;-85
2023/04/21 06:52:42;;;;;;;12.77;6.93;;;10.80;99.90;;;;;;5056192;28;20056;-85
2023/04/21 06:55:07;;;;;;;14.98;7.35;;;10.90;99.90;;;;;;5074630;28;20044;-84
2023/04/21 06:57:33;;;;;;;12.13;7.07;;;11.00;99.90;;;;;;5056432;28;20052;-84
2023/04/21 06:59:59;;;;;;;12.45;6.55;;;11.00;99.90;;;;;;5073464;28;20044;-85
2023/04/21 07:02:24;;;;;;;15.18;8.23;;;11.50;99.90;;;;;;5056358;28;20472;-84
2023/04/21 07:04:50;;;;;;;16.60;8.00;;;11.20;99.90;;;;;;5072957;28;20033;-84
2023/04/21 07:07:16;;;;;;;17.33;6.97;;;11.30;99.90;;;;;;5073240;28;20048;-84
2023/04/21 07:09:41;;;;;;;21.95;8.02;;;11.40;99.90;;;;;;5073358;28;20427;-85
2023/04/21 07:12:07;;;;;;;9.82;6.57;;;11.40;99.90;;;;;;5073390;28;20044;-84
2023/04/21 07:14:33;;;;;;;14.13;6.82;;;11.90;99.90;;;;;;5056278;28;20408;-85
2023/04/21 07:16:58;;;;;;;18.33;7.25;;;11.60;99.90;;;;;;5050834;28;20081;-84
2023/04/21 07:19:24;;;;;;;14.13;7.03;;;11.70;99.90;;;;;;5058450;28;20047;-85
2023/04/21 07:21:50;;;;;;;12.48;7.32;;;11.70;99.90;;;;;;5074800;28;20480;-88
2023/04/21 07:24:16;;;;;;;9.02;6.88;;;11.80;99.90;;;;;;5057278;28;20059;-84
2023/04/21 07:26:41;;;;;;;10.23;6.95;;;11.80;99.90;;;;;;5081014;28;20481;-85
2023/04/21 07:29:07;;;;;;;12.75;7.10;;;11.80;99.90;;;;;;5064277;28;20141;-84
2023/04/21 07:31:33;;;;;;;16.35;6.38;;;12.10;99.90;;;;;;5082039;28;20036;-86
2023/04/21 07:33:58;;;;;;;19.15;7.78;;;12.60;99.90;;;;;;5064136;28;20040;-86
2023/04/21 07:36:25;;;;;;;17.17;7.57;;;12.40;99.90;;;;;;5064814;28;20080;-86
2023/04/21 07:38:50;;;;;;;11.40;6.93;;;12.00;99.90;;;;;;5082471;28;20104;-87
2023/04/21 07:41:16;;;;;;;14.02;7.38;;;12.10;99.90;;;;;;5064416;28;20068;-88
2023/04/21 07:43:42;;;;;;;16.15;7.22;;;12.20;99.90;;;;;;5081555;28;20044;-86
2023/04/21 07:46:08;;;;;;;12.18;6.72;;;12.30;99.90;;;;;;5079818;28;20392;-74
2023/04/21 07:48:33;;;;;;;10.80;6.70;;;12.40;99.90;;;;;;5075561;28;20052;-84
2023/04/21 07:50:59;;;;;;;10.98;6.50;;;12.50;99.90;;;;;;5080590;28;20504;-88
2023/04/21 07:53:26;;;;;;;12.50;6.57;;;13.40;99.90;;;;;;5082352;28;20097;-87
2023/04/21 07:55:52;;;;;;;;;;;12.90;99.90;;;;;;5085767;28;20074;-85
2023/04/21 07:58:17;;;;;;;10.75;6.88;;;13.10;99.90;;;;;;5068605;28;19920;-86
2023/04/21 08:00:43;;;;;;;14.30;7.03;;;13.60;99.90;;;;;;5069358;28;20572;-87
2023/04/21 08:03:09;;;;;;;12.15;7.15;;;13.10;99.90;;;;;;5084791;28;20048;-86
2023/04/21 08:05:34;;;;;;;16.40;7.10;;;14.10;99.90;;;;;;5085370;28;20040;-84
2023/04/21 08:08:00;;;;;;;11.98;7.20;;;13.30;99.90;;;;;;5069058;28;20179;-86
2023/04/21 08:10:26;;;;;;;11.40;6.32;;;13.50;99.90;;;;;;5085760;28;20050;-84
2023/04/21 08:12:51;;;;;;;14.77;6.72;;;13.50;99.90;;;;;;5085057;28;20044;-87
2023/04/21 08:15:17;;;;;;;15.27;7.60;;;13.60;99.90;;;;;;5080795;28;20051;-85
2023/04/21 08:17:43;;;;;;;15.70;6.82;;;13.80;99.90;;;;;;5081856;28;20055;-87
2023/04/21 08:20:09;;;;;;;11.45;6.38;;;13.80;99.90;;;;;;5082420;28;20094;-86
2023/04/21 08:22:37;;;;;;;13.77;6.57;;;13.90;99.90;;;;;;5083427;28;20044;-87
2023/04/21 08:25:05;;;;;;;12.10;6.47;;;14.00;99.90;;;;;;5082614;28;20044;-84
2023/04/21 08:27:31;;;;;;;16.02;6.90;;;14.00;99.90;;;;;;5081436;28;20404;-85
2023/04/21 08:29:56;;;;;;;14.43;7.23;;;14.70;99.90;;;;;;5083861;28;20040;-85
2023/04/21 08:32:23;;;;;;;14.40;6.32;;;14.20;99.90;;;;;;5084408;28;20044;-84
2023/04/21 08:34:53;;;;;;;15.15;7.50;;;14.60;99.90;;;;;;5068546;28;20037;-85
2023/04/21 08:37:20;;;;;;;15.40;7.18;;;14.50;99.90;;;;;;5086756;28;20166;-84
2023/04/21 08:39:46;;;;;;;;;;;15.30;99.90;;;;;;5066113;28;20051;-85
2023/04/21 08:42:16;;;;;;;15.55;6.93;;;15.00;99.90;;;;;;5068205;28;19920;-85
2023/04/21 08:44:42;;;;;;;14.25;6.55;;;15.50;99.90;;;;;;5070012;28;20036;-85
2023/04/21 08:47:13;;;;;;;11.85;6.32;;;14.90;99.90;;;;;;5089539;28;20507;-85
2023/04/21 08:49:41;;;;;;;15.88;6.93;;;14.90;99.90;;;;;;5089743;28;20068;-84
2023/04/21 08:52:07;;;;;;;13.63;6.55;;;14.90;99.90;;;;;;5089809;28;20097;-85
2023/04/21 08:54:35;;;;;;;21.53;6.93;;;14.90;99.90;;;;;;5087972;28;20488;-85
2023/04/21 08:57:02;;;;;;;11.15;6.10;;;15.00;99.90;;;;;;5087745;28;20488;-85
2023/04/21 08:59:27;;;;;;;;;;;14.90;99.90;;;;;;5087384;28;20131;-85
2023/04/21 09:02:11;;;;;;;13.88;6.57;;;15.00;99.90;;;;;;5064805;28;19986;-85
2023/04/21 09:04:39;;;;;;;12.82;6.85;;;15.20;99.90;;;;;;5081236;28;20082;-87
2023/04/21 09:07:05;;;;;;;11.35;6.95;;;15.40;99.90;;;;;;5087389;28;20065;-88
2023/04/21 09:09:30;;;;;;;16.83;6.33;;;16.10;99.90;;;;;;5087837;28;20068;-85
2023/04/21 09:12:00;;;;;;;16.70;7.17;;;15.80;99.90;;;;;;5088554;28;20041;-85
2023/04/21 09:14:32;;;;;;;10.73;6.82;;;15.90;99.90;;;;;;5088330;28;20045;-87
2023/04/21 09:17:03;;;;;;;13.07;6.28;;;15.90;99.90;;;;;;5069891;28;20121;-87
2023/04/21 09:19:32;;;;;;;19.63;7.35;;;16.00;99.90;;;;;;5085577;28;20040;-85
2023/04/21 09:21:59;;;;;;;13.82;7.45;;;15.90;99.90;;;;;;5065546;28;20049;-87
2023/04/21 09:24:25;;;;;;;14.52;7.13;;;16.00;99.90;;;;;;5082606;28;20098;-86
2023/04/21 09:26:52;;;;;;;11.87;6.60;;;16.00;99.90;;;;;;5084747;28;20492;-85
2023/04/21 09:29:17;;;;;;;;;;;16.10;99.90;;;;;;5087740;28;20049;-86
2023/04/21 09:31:43;;;;;;;14.40;7.00;;;16.20;99.90;;;;;;5065925;28;20289;-86
2023/04/21 09:34:23;;;;;;;12.03;6.20;;;16.20;99.90;;;;;;5066440;28;20052;-85
2023/04/21 09:37:02;;;;;;;10.88;7.55;;;16.30;99.90;;;;;;5067380;28;20052;-87
2023/04/21 09:39:30;;;;;;;14.35;8.43;;;16.30;99.90;;;;;;5070028;28;20076;-84
2023/04/21 09:41:57;;;;;;;12.77;7.70;;;16.40;99.90;;;;;;5086216;28;20136;-84
2023/04/21 09:44:24;;;;;;;12.45;7.47;;;16.40;99.90;;;;;;5069841;28;20374;-85
2023/04/21 09:46:52;;;;;;;12.70;7.10;;;16.60;99.90;;;;;;5069378;28;20044;-85
2023/04/21 09:49:22;;;;;;;12.35;6.75;;;16.90;99.90;;;;;;5085640;28;20140;-84
2023/04/21 09:51:48;;;;;;;15.85;6.68;;;16.90;99.90;;;;;;5077142;28;20060;-86
2023/04/21 09:54:18;;;;;;;14.40;7.13;;;17.00;99.90;;;;;;5057812;28;20036;-86
2023/04/21 09:56:51;;;;;;;15.23;6.97;;;17.20;99.90;;;;;;5075609;28;20626;-86
2023/04/21 09:59:22;;;;;;;20.27;7.07;;;17.60;99.90;;;;;;5058063;28;20396;-85
2023/04/21 10:01:50;;;;;;;11.25;7.13;;;18.00;99.90;;;;;;5074926;28;20051;-86
2023/04/21 10:04:18;;;;;;;13.82;6.75;;;18.00;99.90;;;;;;5074464;28;20067;-87
2023/04/21 10:06:44;;;;;;;13.05;6.82;;;18.00;99.90;;;;;;5074047;28;20041;-86
2023/04/21 10:09:12;;;;;;;13.82;7.13;;;17.90;99.90;;;;;;5075291;28;20063;-85
2023/04/21 10:11:38;;;;;;;21.77;7.57;;;18.10;99.90;;;;;;5073976;28;20488;-85
2023/04/21 10:14:04;;;;;;;13.00;7.22;;;18.00;99.90;;;;;;5073823;28;20531;-86
2023/04/21 10:16:29;;;;;;;15.97;6.97;;;17.80;99.90;;;;;;5073531;28;20080;-86
2023/04/21 10:18:55;;;;;;;11.83;6.80;;;17.90;99.90;;;;;;5073623;28;20044;-87
2023/04/21 10:21:23;;;;;;;13.30;7.27;;;18.00;99.90;;;;;;5074139;28;20073;-87
2023/04/21 10:23:50;;;;;;;14.00;7.50;;;18.30;99.90;;;;;;5057366;28;20066;-86
2023/04/21 10:26:24;;;;;;;15.35;7.82;;;18.30;99.90;;;;;;5073697;28;20054;-85
2023/04/21 10:28:58;;;;;;;12.93;6.95;;;18.40;99.90;;;;;;5079694;28;20511;-87
2023/04/21 10:31:34;;;;;;;12.18;6.45;;;18.40;99.90;;;;;;5077612;28;20368;-86
2023/04/21 10:34:06;;;;;;;11.00;7.47;;;18.60;99.90;;;;;;5060065;28;20426;-85
2023/04/21 10:36:44;;;;;;;15.32;6.72;;;18.80;99.90;;;;;;5073211;28;20044;-86
2023/04/21 10:39:11;;;;;;;16.52;7.07;;;18.90;99.90;;;;;;5073681;28;20105;-86
2023/04/21 10:41:38;;;;;;;10.90;6.32;;;18.90;99.90;;;;;;5073119;28;20032;-85
2023/04/21 10:44:06;;;;;;;14.52;7.25;;;18.90;99.90;;;;;;5057164;28;20075;-86
2023/04/21 10:46:40;;;;;;;13.02;6.60;;;19.10;99.90;;;;;;5073204;28;20053;-87
2023/04/21 10:49:09;;;;;;;11.77;6.85;;;19.30;99.90;;;;;;5056309;28;20131;-87
2023/04/21 10:51:57;;;;;;;17.77;7.05;;;19.10;99.90;;;;;;5073097;28;20399;-86
2023/04/21 10:54:24;;;;;;;11.45;6.68;;;18.90;99.90;;;;;;5056709;28;20048;-85
2023/04/21 10:56:55;;;;;;;19.50;7.18;;;18.70;99.90;;;;;;5073325;28;20052;-85
2023/04/21 10:59:23;;;;;;;14.02;6.70;;;18.80;99.90;;;;;;5073072;28;20051;-88
2023/04/21 11:01:49;;;;;;;11.38;6.18;;;19.00;99.90;;;;;;5073000;28;20059;-86
2023/04/21 11:04:19;;;;;;;12.13;5.53;;;19.20;99.90;;;;;;5073088;28;20052;-87
2023/04/21 11:07:06;;;;;;;11.10;6.65;;;19.30;99.90;;;;;;5073205;28;20040;-84
2023/04/21 11:09:32;;;;;;;16.35;6.10;;;19.10;99.90;;;;;;5072618;28;20086;-86
2023/04/21 11:12:03;;;;;;;13.13;6.00;;;19.40;99.90;;;;;;5073936;28;20080;-85
2023/04/21 11:14:29;;;;;;;14.57;6.13;;;19.00;99.90;;;;;;5072728;28;20106;-86
2023/04/21 11:16:55;;;;;;;11.57;5.90;;;19.00;99.90;;;;;;5057044;28;20044;-88
2023/04/21 11:19:23;;;;;;;12.13;5.37;;;19.00;99.90;;;;;;5074496;28;20055;-87
2023/04/21 11:21:49;;;;;;;12.57;5.80;;;19.20;99.90;;;;;;5073551;28;20516;-86
2023/04/21 11:24:15;;;;;;;12.75;5.20;;;19.60;99.90;;;;;;5058250;28;20140;-87
2023/04/21 11:26:43;;;;;;;18.37;5.30;;;19.70;99.90;;;;;;5075313;28;20492;-85
2023/04/21 11:29:10;;;;;;;17.95;5.43;;;19.80;99.90;;;;;;5073901;28;20052;-85
2023/04/21 11:31:38;;;;;;;13.10;5.47;;;19.80;99.90;;;;;;5056938;28;20097;-85
2023/04/21 11:34:05;;;;;;;14.30;4.97;;;19.70;99.90;;;;;;5074147;28;20115;-86
2023/04/21 11:36:49;;;;;;;11.95;4.85;;;19.70;99.90;;;;;;5073418;28;20045;-86
2023/04/21 11:39:18;;;;;;;11.63;4.57;;;19.60;99.90;;;;;;5056913;28;20166;-85
2023/04/21 11:41:46;;;;;;;11.00;4.35;;;19.60;99.90;;;;;;5074107;28;20052;-84
2023/04/21 11:44:13;;;;;;;6.75;4.00;;;19.80;99.90;;;;;;5072938;28;20139;-85
2023/04/21 11:46:45;;;;;;;11.85;4.82;;;20.00;99.90;;;;;;5073714;28;20094;-86
2023/04/21 11:49:13;;;;;;;11.70;3.95;;;20.10;99.90;;;;;;5072702;28;20396;-86
2023/04/21 11:51:43;;;;;;;11.63;4.35;;;20.30;99.90;;;;;;5055500;28;20074;-85
2023/04/21 11:54:13;;;;;;;12.95;4.10;;;20.60;99.90;;;;;;5073504;28;20036;-88
2023/04/21 11:56:40;;;;;;;13.15;4.38;;;20.90;99.90;;;;;;5072931;28;20140;-82
2023/04/21 11:59:08;;;;;;;11.40;4.03;;;20.90;99.90;;;;;;5072931;28;20102;-84
2023/04/21 12:01:34;;;;;;;11.30;4.93;;;21.00;99.90;;;;;;5072345;28;20040;-85
2023/04/21 12:04:02;;;;;;;7.43;4.37;;;20.90;99.50;;;;;;5072608;28;20387;-85
2023/04/21 12:06:28;;;;;;;9.93;4.53;;;20.80;99.90;;;;;;5072366;28;20048;-84
2023/04/21 12:09:01;;;;;;;9.90;4.10;;;20.40;98.60;;;;;;5072132;28;20064;-83
2023/04/21 12:11:28;;;;;;;12.18;4.32;;;20.10;98.80;;;;;;5072776;28;20055;-84
2023/04/21 12:13:57;;;;;;;11.05;3.67;;;19.90;99.10;;;;;;5071998;28;20464;-84
2023/04/21 12:16:27;;;;;;;10.63;3.60;;;19.50;99.50;;;;;;5073503;28;20056;-86
2023/04/21 12:18:56;;;;;;;11.40;3.92;;;19.50;99.90;;;;;;5073540;28;20463;-85
2023/04/21 12:21:27;;;;;;;10.82;3.67;;;20.20;99.90;;;;;;5072270;28;20051;-83
2023/04/21 12:23:52;;;;;;;12.43;3.75;;;19.20;99.10;;;;;;5072685;28;20044;-84
2023/04/21 12:26:18;;;;;;;19.83;4.50;;;19.10;99.40;;;;;;5055390;28;20044;-86
2023/04/21 12:28:44;;;;;;;9.53;3.50;;;19.10;99.30;;;;;;5072674;28;20051;-86
2023/04/21 12:31:10;;;;;;;8.07;3.67;;;19.10;99.70;;;;;;5072118;28;20044;-85
2023/04/21 12:33:35;;;;;;;8.35;4.00;;;19.10;99.40;;;;;;5055530;28;20370;-86
2023/04/21 12:36:01;;;;;;;10.20;3.87;;;19.10;99.60;;;;;;5071737;28;20048;-84
2023/04/21 12:38:32;;;;;;;7.90;3.42;;;19.00;98.90;;;;;;5056368;28;20044;-86
2023/04/21 12:40:58;;;;;;;7.15;3.78;;;19.00;99.40;;;;;;5075858;28;20041;-84